sensor_id;sensor_type;location;lat;lon;timestamp;P1;durP1;ratioP1;P2;durP2;ratioP2
60098;SDS011;62818;49.394;8.686;2023-02-15T00:00:39;58.30;;;33.43;;
60098;SDS011;62818;49.394;8.686;2023-02-15T00:01:40;66.90;;;34.70;;
60098;SDS011;62818;49.394;8.686;2023-02-15T00:02:42;66.47;;;33.70;;
60098;SDS011;62818;49.394;8.686;2023-02-15T00:03:42;55.50;;;34.63;;
60098;SDS011;62818;49.394;8.686;2023-02-15T00:04:43;61.47;;;34.57;;
60098;SDS011;62818;49.394;8.686;2023-02-15T00:05:46;63.45;;;32.40;;
60098;SDS011;62818;49.394;8.686;2023-02-15T00:06:47;71.07;;;33.17;;
60098;SDS011;62818;49.394;8.686;2023-02-15T00:08:48;51.17;;;32.15;;
60098;SDS011;62818;49.394;8.686;2023-02-15T00:09:49;74.07;;;32.35;;
60098;SDS011;62818;49.394;8.686;2023-02-15T00:10:50;73.53;;;33.67;;
60098;SDS011;62818;49.394;8.686;2023-02-15T00:11:50;68.80;;;32.20;;
60098;SDS011;62818;49.394;8.686;2023-02-15T00:12:51;80.47;;;35.23;;
60098;SDS011;62818;49.394;8.686;2023-02-15T00:13:51;51.83;;;34.33;;
60098;SDS011;62818;49.394;8.686;2023-02-15T00:14:52;58.80;;;34.60;;
60098;SDS011;62818;49.394;8.686;2023-02-15T00:15:52;58.53;;;33.67;;
60098;SDS011;62818;49.394;8.686;2023-02-15T00:16:53;63.70;;;34.20;;
60098;SDS011;62818;49.394;8.686;2023-02-15T00:17:54;90.50;;;33.80;;
60098;SDS011;62818;49.394;8.686;2023-02-15T00:18:56;64.22;;;34.38;;
60098;SDS011;62818;49.394;8.686;2023-02-15T00:19:57;56.87;;;33.90;;
60098;SDS011;62818;49.394;8.686;2023-02-15T00:20:57;58.27;;;32.87;;
60098;SDS011;62818;49.394;8.686;2023-02-15T00:22:03;52.17;;;31.65;;
60098;SDS011;62818;49.394;8.686;2023-02-15T00:23:03;58.60;;;33.63;;
60098;SDS011;62818;49.394;8.686;2023-02-15T00:24:04;58.30;;;34.53;;
60098;SDS011;62818;49.394;8.686;2023-02-15T00:25:07;60.50;;;34.15;;
60098;SDS011;62818;49.394;8.686;2023-02-15T00:26:09;51.33;;;34.33;;
60098;SDS011;62818;49.394;8.686;2023-02-15T00:27:12;57.03;;;33.95;;
60098;SDS011;62818;49.394;8.686;2023-02-15T00:28:12;48.93;;;33.47;;
60098;SDS011;62818;49.394;8.686;2023-02-15T00:29:13;49.50;;;31.47;;
60098;SDS011;62818;49.394;8.686;2023-02-15T00:30:17;46.40;;;31.80;;
60098;SDS011;62818;49.394;8.686;2023-02-15T00:31:18;44.93;;;31.83;;
60098;SDS011;62818;49.394;8.686;2023-02-15T00:32:19;46.55;;;29.55;;
60098;SDS011;62818;49.394;8.686;2023-02-15T00:33:19;49.77;;;29.60;;
60098;SDS011;62818;49.394;8.686;2023-02-15T00:34:21;48.77;;;32.37;;
60098;SDS011;62818;49.394;8.686;2023-02-15T00:35:25;44.55;;;31.65;;
60098;SDS011;62818;49.394;8.686;2023-02-15T00:36:25;44.13;;;30.67;;
60098;SDS011;62818;49.394;8.686;2023-02-15T00:37:25;38.23;;;28.63;;
60098;SDS011;62818;49.394;8.686;2023-02-15T00:38:29;45.63;;;30.70;;
60098;SDS011;62818;49.394;8.686;2023-02-15T00:39:31;38.63;;;29.15;;
60098;SDS011;62818;49.394;8.686;2023-02-15T00:40:31;41.97;;;29.27;;
60098;SDS011;62818;49.394;8.686;2023-02-15T00:41:32;39.07;;;28.03;;
60098;SDS011;62818;49.394;8.686;2023-02-15T00:42:33;40.40;;;29.15;;
60098;SDS011;62818;49.394;8.686;2023-02-15T00:43:34;38.43;;;28.80;;
60098;SDS011;62818;49.394;8.686;2023-02-15T00:44:36;43.00;;;29.80;;
60098;SDS011;62818;49.394;8.686;2023-02-15T00:45:36;36.90;;;28.80;;
60098;SDS011;62818;49.394;8.686;2023-02-15T00:46:37;39.13;;;29.33;;
60098;SDS011;62818;49.394;8.686;2023-02-15T00:47:38;43.72;;;29.00;;
60098;SDS011;62818;49.394;8.686;2023-02-15T00:48:38;41.03;;;28.83;;
60098;SDS011;62818;49.394;8.686;2023-02-15T00:49:39;44.53;;;30.83;;
60098;SDS011;62818;49.394;8.686;2023-02-15T00:50:39;40.00;;;30.10;;
60098;SDS011;62818;49.394;8.686;2023-02-15T00:51:40;41.17;;;29.70;;
60098;SDS011;62818;49.394;8.686;2023-02-15T00:52:40;49.13;;;31.13;;
60098;SDS011;62818;49.394;8.686;2023-02-15T00:53:41;42.37;;;30.57;;
60098;SDS011;62818;49.394;8.686;2023-02-15T00:54:41;44.60;;;30.17;;
60098;SDS011;62818;49.394;8.686;2023-02-15T00:55:42;53.53;;;30.47;;
60098;SDS011;62818;49.394;8.686;2023-02-15T00:56:42;46.17;;;29.63;;
60098;SDS011;62818;49.394;8.686;2023-02-15T00:57:43;43.30;;;32.17;;
60098;SDS011;62818;49.394;8.686;2023-02-15T00:58:43;48.93;;;30.70;;
60098;SDS011;62818;49.394;8.686;2023-02-15T00:59:44;43.42;;;30.55;;
60098;SDS011;62818;49.394;8.686;2023-02-15T01:00:45;41.43;;;29.90;;
60098;SDS011;62818;49.394;8.686;2023-02-15T01:01:47;49.03;;;31.15;;
60098;SDS011;62818;49.394;8.686;2023-02-15T01:02:48;44.57;;;30.80;;
60098;SDS011;62818;49.394;8.686;2023-02-15T01:03:48;43.53;;;29.77;;
60098;SDS011;62818;49.394;8.686;2023-02-15T01:04:49;49.30;;;30.37;;
60098;SDS011;62818;49.394;8.686;2023-02-15T01:05:49;71.40;;;31.47;;
60098;SDS011;62818;49.394;8.686;2023-02-15T01:06:50;52.97;;;30.80;;
60098;SDS011;62818;49.394;8.686;2023-02-15T01:07:50;73.03;;;31.83;;
60098;SDS011;62818;49.394;8.686;2023-02-15T01:08:51;58.40;;;32.43;;
60098;SDS011;62818;49.394;8.686;2023-02-15T01:09:51;56.17;;;31.37;;
60098;SDS011;62818;49.394;8.686;2023-02-15T01:10:52;49.33;;;32.10;;
60098;SDS011;62818;49.394;8.686;2023-02-15T01:11:53;49.45;;;31.88;;
60098;SDS011;62818;49.394;8.686;2023-02-15T01:12:54;46.07;;;31.57;;
60098;SDS011;62818;49.394;8.686;2023-02-15T01:13:56;41.22;;;30.58;;
60098;SDS011;62818;49.394;8.686;2023-02-15T01:14:58;44.72;;;30.88;;
60098;SDS011;62818;49.394;8.686;2023-02-15T01:15:58;51.37;;;30.10;;
60098;SDS011;62818;49.394;8.686;2023-02-15T01:16:59;45.90;;;32.07;;
60098;SDS011;62818;49.394;8.686;2023-02-15T01:17:59;45.70;;;31.87;;
60098;SDS011;62818;49.394;8.686;2023-02-15T01:19:00;48.40;;;31.53;;
60098;SDS011;62818;49.394;8.686;2023-02-15T01:20:02;45.75;;;31.33;;
60098;SDS011;62818;49.394;8.686;2023-02-15T01:21:10;44.28;;;31.27;;
60098;SDS011;62818;49.394;8.686;2023-02-15T01:22:17;42.15;;;30.38;;
60098;SDS011;62818;49.394;8.686;2023-02-15T01:23:19;42.10;;;30.48;;
60098;SDS011;62818;49.394;8.686;2023-02-15T01:24:20;62.05;;;32.05;;
60098;SDS011;62818;49.394;8.686;2023-02-15T01:25:21;45.87;;;31.50;;
60098;SDS011;62818;49.394;8.686;2023-02-15T01:26:23;45.75;;;31.92;;
60098;SDS011;62818;49.394;8.686;2023-02-15T01:27:24;52.50;;;33.70;;
60098;SDS011;62818;49.394;8.686;2023-02-15T01:28:24;44.77;;;31.43;;
60098;SDS011;62818;49.394;8.686;2023-02-15T01:29:25;42.90;;;31.73;;
60098;SDS011;62818;49.394;8.686;2023-02-15T01:30:25;45.30;;;30.40;;
60098;SDS011;62818;49.394;8.686;2023-02-15T01:31:26;42.80;;;32.28;;
60098;SDS011;62818;49.394;8.686;2023-02-15T01:32:26;44.00;;;32.30;;
60098;SDS011;62818;49.394;8.686;2023-02-15T01:33:27;44.57;;;31.37;;
60098;SDS011;62818;49.394;8.686;2023-02-15T01:34:28;46.67;;;32.83;;
60098;SDS011;62818;49.394;8.686;2023-02-15T01:35:30;44.60;;;30.13;;
60098;SDS011;62818;49.394;8.686;2023-02-15T01:36:32;51.22;;;31.08;;
60098;SDS011;62818;49.394;8.686;2023-02-15T01:37:34;43.30;;;31.90;;
60098;SDS011;62818;49.394;8.686;2023-02-15T01:38:35;55.67;;;32.38;;
60098;SDS011;62818;49.394;8.686;2023-02-15T01:39:36;45.40;;;31.07;;
60098;SDS011;62818;49.394;8.686;2023-02-15T01:40:36;46.43;;;32.50;;
60098;SDS011;62818;49.394;8.686;2023-02-15T01:41:38;44.35;;;31.77;;
60098;SDS011;62818;49.394;8.686;2023-02-15T01:42:39;42.23;;;30.70;;
60098;SDS011;62818;49.394;8.686;2023-02-15T01:43:53;43.25;;;31.20;;
60098;SDS011;62818;49.394;8.686;2023-02-15T01:44:58;44.13;;;32.67;;
60098;SDS011;62818;49.394;8.686;2023-02-15T01:46:15;40.50;;;30.90;;
60098;SDS011;62818;49.394;8.686;2023-02-15T01:47:22;41.25;;;31.35;;
60098;SDS011;62818;49.394;8.686;2023-02-15T01:48:48;43.22;;;31.48;;
60098;SDS011;62818;49.394;8.686;2023-02-15T01:50:03;43.45;;;30.63;;
60098;SDS011;62818;49.394;8.686;2023-02-15T01:51:30;39.72;;;29.63;;
60098;SDS011;62818;49.394;8.686;2023-02-15T01:52:35;45.53;;;31.80;;
60098;SDS011;62818;49.394;8.686;2023-02-15T01:53:47;45.22;;;31.23;;
60098;SDS011;62818;49.394;8.686;2023-02-15T01:54:54;40.08;;;30.27;;
60098;SDS011;62818;49.394;8.686;2023-02-15T01:56:37;43.30;;;30.57;;
60098;SDS011;62818;49.394;8.686;2023-02-15T01:57:27;40.78;;;29.85;;
60098;SDS011;62818;49.394;8.686;2023-02-15T01:58:28;42.38;;;29.77;;
60098;SDS011;62818;49.394;8.686;2023-02-15T01:59:31;43.50;;;32.05;;
60098;SDS011;62818;49.394;8.686;2023-02-15T02:00:36;44.13;;;32.40;;
60098;SDS011;62818;49.394;8.686;2023-02-15T02:01:37;41.97;;;30.83;;
60098;SDS011;62818;49.394;8.686;2023-02-15T02:05:04;44.63;;;31.75;;
60098;SDS011;62818;49.394;8.686;2023-02-15T02:06:07;45.55;;;32.75;;
60098;SDS011;62818;49.394;8.686;2023-02-15T02:07:09;42.90;;;30.77;;
60098;SDS011;62818;49.394;8.686;2023-02-15T02:08:14;47.88;;;32.03;;
60098;SDS011;62818;49.394;8.686;2023-02-15T02:09:14;42.63;;;30.63;;
60098;SDS011;62818;49.394;8.686;2023-02-15T02:10:16;44.50;;;32.27;;
60098;SDS011;62818;49.394;8.686;2023-02-15T02:11:20;46.95;;;30.92;;
60098;SDS011;62818;49.394;8.686;2023-02-15T02:12:21;43.67;;;31.08;;
60098;SDS011;62818;49.394;8.686;2023-02-15T02:13:23;43.35;;;31.45;;
60098;SDS011;62818;49.394;8.686;2023-02-15T02:14:24;40.58;;;30.63;;
60098;SDS011;62818;49.394;8.686;2023-02-15T02:15:33;42.75;;;30.70;;
60098;SDS011;62818;49.394;8.686;2023-02-15T02:16:52;42.00;;;30.38;;
60098;SDS011;62818;49.394;8.686;2023-02-15T02:18:21;46.38;;;31.00;;
60098;SDS011;62818;49.394;8.686;2023-02-15T02:23:31;45.88;;;31.60;;
60098;SDS011;62818;49.394;8.686;2023-02-15T02:31:17;46.00;;;29.67;;
60098;SDS011;62818;49.394;8.686;2023-02-15T02:34:16;55.65;;;31.88;;
60098;SDS011;62818;49.394;8.686;2023-02-15T02:37:23;49.63;;;31.85;;
60098;SDS011;62818;49.394;8.686;2023-02-15T02:38:42;58.83;;;31.52;;
60098;SDS011;62818;49.394;8.686;2023-02-15T02:41:21;58.45;;;31.40;;
60098;SDS011;62818;49.394;8.686;2023-02-15T02:43:59;49.35;;;31.90;;
60098;SDS011;62818;49.394;8.686;2023-02-15T02:46:20;52.83;;;33.30;;
60098;SDS011;62818;49.394;8.686;2023-02-15T02:48:40;51.78;;;33.22;;
60098;SDS011;62818;49.394;8.686;2023-02-15T02:49:42;51.63;;;34.08;;
60098;SDS011;62818;49.394;8.686;2023-02-15T02:50:43;54.03;;;34.42;;
60098;SDS011;62818;49.394;8.686;2023-02-15T02:51:44;57.40;;;34.60;;
60098;SDS011;62818;49.394;8.686;2023-02-15T02:52:45;54.97;;;34.50;;
60098;SDS011;62818;49.394;8.686;2023-02-15T02:53:50;64.10;;;34.83;;
60098;SDS011;62818;49.394;8.686;2023-02-15T02:54:56;54.30;;;34.50;;
60098;SDS011;62818;49.394;8.686;2023-02-15T02:57:24;48.88;;;33.08;;
60098;SDS011;62818;49.394;8.686;2023-02-15T02:58:31;57.75;;;35.03;;
60098;SDS011;62818;49.394;8.686;2023-02-15T02:59:45;48.95;;;32.47;;
60098;SDS011;62818;49.394;8.686;2023-02-15T03:01:02;49.42;;;32.53;;
60098;SDS011;62818;49.394;8.686;2023-02-15T03:02:12;48.15;;;32.72;;
60098;SDS011;62818;49.394;8.686;2023-02-15T03:03:26;52.95;;;33.42;;
60098;SDS011;62818;49.394;8.686;2023-02-15T03:04:37;52.50;;;33.80;;
60098;SDS011;62818;49.394;8.686;2023-02-15T03:05:45;51.88;;;33.85;;
60098;SDS011;62818;49.394;8.686;2023-02-15T03:06:55;57.75;;;35.08;;
60098;SDS011;62818;49.394;8.686;2023-02-15T03:08:02;47.40;;;34.17;;
60098;SDS011;62818;49.394;8.686;2023-02-15T03:09:11;52.10;;;34.17;;
60098;SDS011;62818;49.394;8.686;2023-02-15T03:10:22;44.65;;;32.65;;
60098;SDS011;62818;49.394;8.686;2023-02-15T03:11:25;47.78;;;32.30;;
60098;SDS011;62818;49.394;8.686;2023-02-15T03:12:29;48.03;;;32.27;;
60098;SDS011;62818;49.394;8.686;2023-02-15T03:13:35;49.92;;;33.15;;
60098;SDS011;62818;49.394;8.686;2023-02-15T03:14:36;48.95;;;31.38;;
60098;SDS011;62818;49.394;8.686;2023-02-15T03:15:42;49.35;;;32.58;;
60098;SDS011;62818;49.394;8.686;2023-02-15T03:17:03;54.42;;;34.30;;
60098;SDS011;62818;49.394;8.686;2023-02-15T03:18:07;51.13;;;33.65;;
60098;SDS011;62818;49.394;8.686;2023-02-15T03:19:09;50.15;;;34.55;;
60098;SDS011;62818;49.394;8.686;2023-02-15T03:20:45;54.83;;;33.67;;
60098;SDS011;62818;49.394;8.686;2023-02-15T03:21:50;52.40;;;34.63;;
60098;SDS011;62818;49.394;8.686;2023-02-15T03:23:07;55.95;;;33.80;;
60098;SDS011;62818;49.394;8.686;2023-02-15T03:24:17;51.33;;;34.35;;
60098;SDS011;62818;49.394;8.686;2023-02-15T03:25:24;49.53;;;33.83;;
60098;SDS011;62818;49.394;8.686;2023-02-15T03:26:33;49.55;;;34.40;;
60098;SDS011;62818;49.394;8.686;2023-02-15T03:27:40;49.60;;;33.65;;
60098;SDS011;62818;49.394;8.686;2023-02-15T03:28:55;48.83;;;33.08;;
60098;SDS011;62818;49.394;8.686;2023-02-15T03:30:00;49.95;;;34.08;;
60098;SDS011;62818;49.394;8.686;2023-02-15T03:31:06;49.72;;;33.33;;
60098;SDS011;62818;49.394;8.686;2023-02-15T03:32:10;50.72;;;33.05;;
60098;SDS011;62818;49.394;8.686;2023-02-15T03:33:15;46.80;;;33.17;;
60098;SDS011;62818;49.394;8.686;2023-02-15T03:34:16;55.40;;;35.17;;
60098;SDS011;62818;49.394;8.686;2023-02-15T03:37:58;47.67;;;33.05;;
60098;SDS011;62818;49.394;8.686;2023-02-15T03:40:23;45.10;;;32.38;;
60098;SDS011;62818;49.394;8.686;2023-02-15T03:42:01;44.80;;;31.60;;
60098;SDS011;62818;49.394;8.686;2023-02-15T03:43:40;42.90;;;30.63;;
60098;SDS011;62818;49.394;8.686;2023-02-15T03:46:35;43.20;;;30.75;;
60098;SDS011;62818;49.394;8.686;2023-02-15T03:47:43;41.08;;;30.23;;
60098;SDS011;62818;49.394;8.686;2023-02-15T03:48:53;41.03;;;31.67;;
60098;SDS011;62818;49.394;8.686;2023-02-15T03:50:19;44.92;;;30.45;;
60098;SDS011;62818;49.394;8.686;2023-02-15T03:51:46;45.50;;;31.17;;
60098;SDS011;62818;49.394;8.686;2023-02-15T03:52:50;45.53;;;31.67;;
60098;SDS011;62818;49.394;8.686;2023-02-15T03:54:54;45.40;;;31.27;;
60098;SDS011;62818;49.394;8.686;2023-02-15T03:55:55;47.00;;;32.67;;
60098;SDS011;62818;49.394;8.686;2023-02-15T03:56:56;54.40;;;32.10;;
60098;SDS011;62818;49.394;8.686;2023-02-15T03:58:17;54.95;;;32.15;;
60098;SDS011;62818;49.394;8.686;2023-02-15T03:59:36;49.55;;;32.85;;
60098;SDS011;62818;49.394;8.686;2023-02-15T04:00:57;47.38;;;31.95;;
60098;SDS011;62818;49.394;8.686;2023-02-15T04:02:45;48.47;;;30.17;;
60098;SDS011;62818;49.394;8.686;2023-02-15T04:04:07;50.03;;;32.15;;
60098;SDS011;62818;49.394;8.686;2023-02-15T04:05:19;50.38;;;31.75;;
60098;SDS011;62818;49.394;8.686;2023-02-15T04:06:19;48.50;;;32.67;;
60098;SDS011;62818;49.394;8.686;2023-02-15T04:07:20;50.30;;;33.93;;
60098;SDS011;62818;49.394;8.686;2023-02-15T04:08:20;48.30;;;33.27;;
60098;SDS011;62818;49.394;8.686;2023-02-15T04:09:40;48.97;;;33.50;;
60098;SDS011;62818;49.394;8.686;2023-02-15T04:10:59;50.13;;;33.60;;
60098;SDS011;62818;49.394;8.686;2023-02-15T04:12:00;46.67;;;31.97;;
60098;SDS011;62818;49.394;8.686;2023-02-15T04:13:00;47.87;;;33.33;;
60098;SDS011;62818;49.394;8.686;2023-02-15T04:14:01;47.10;;;32.37;;
60098;SDS011;62818;49.394;8.686;2023-02-15T04:15:21;51.65;;;32.30;;
60098;SDS011;62818;49.394;8.686;2023-02-15T04:16:40;50.67;;;32.97;;
60098;SDS011;62818;49.394;8.686;2023-02-15T04:17:41;47.80;;;32.50;;
60098;SDS011;62818;49.394;8.686;2023-02-15T04:18:42;45.93;;;32.13;;
60098;SDS011;62818;49.394;8.686;2023-02-15T04:20:01;44.75;;;31.83;;
60098;SDS011;62818;49.394;8.686;2023-02-15T04:21:21;53.40;;;31.80;;
60098;SDS011;62818;49.394;8.686;2023-02-15T04:22:42;46.30;;;32.78;;
60098;SDS011;62818;49.394;8.686;2023-02-15T04:24:01;44.60;;;31.73;;
60098;SDS011;62818;49.394;8.686;2023-02-15T04:25:20;46.22;;;31.38;;
60098;SDS011;62818;49.394;8.686;2023-02-15T04:26:21;48.33;;;33.03;;
60098;SDS011;62818;49.394;8.686;2023-02-15T04:27:21;46.27;;;31.97;;
60098;SDS011;62818;49.394;8.686;2023-02-15T04:28:22;46.53;;;31.13;;
60098;SDS011;62818;49.394;8.686;2023-02-15T04:29:22;40.57;;;29.20;;
60098;SDS011;62818;49.394;8.686;2023-02-15T04:30:25;43.90;;;31.90;;
60098;SDS011;62818;49.394;8.686;2023-02-15T04:31:26;41.65;;;31.52;;
60098;SDS011;62818;49.394;8.686;2023-02-15T04:32:26;43.37;;;32.03;;
60098;SDS011;62818;49.394;8.686;2023-02-15T04:33:27;43.20;;;30.50;;
60098;SDS011;62818;49.394;8.686;2023-02-15T04:34:27;41.70;;;30.17;;
60098;SDS011;62818;49.394;8.686;2023-02-15T04:35:28;41.90;;;30.83;;
60098;SDS011;62818;49.394;8.686;2023-02-15T04:36:29;42.93;;;30.07;;
60098;SDS011;62818;49.394;8.686;2023-02-15T04:37:29;45.70;;;32.27;;
60098;SDS011;62818;49.394;8.686;2023-02-15T04:38:30;41.47;;;29.73;;
60098;SDS011;62818;49.394;8.686;2023-02-15T04:39:30;44.93;;;31.03;;
60098;SDS011;62818;49.394;8.686;2023-02-15T04:40:32;43.55;;;30.40;;
60098;SDS011;62818;49.394;8.686;2023-02-15T04:41:32;43.07;;;29.97;;
60098;SDS011;62818;49.394;8.686;2023-02-15T04:42:33;46.97;;;31.20;;
60098;SDS011;62818;49.394;8.686;2023-02-15T04:43:34;43.37;;;30.57;;
60098;SDS011;62818;49.394;8.686;2023-02-15T04:44:34;43.97;;;29.77;;
60098;SDS011;62818;49.394;8.686;2023-02-15T04:45:34;41.13;;;30.03;;
60098;SDS011;62818;49.394;8.686;2023-02-15T04:46:35;42.40;;;30.67;;
60098;SDS011;62818;49.394;8.686;2023-02-15T04:47:36;41.97;;;30.47;;
60098;SDS011;62818;49.394;8.686;2023-02-15T04:48:36;44.17;;;31.03;;
60098;SDS011;62818;49.394;8.686;2023-02-15T04:49:36;40.00;;;29.67;;
60098;SDS011;62818;49.394;8.686;2023-02-15T04:50:37;43.07;;;30.27;;
60098;SDS011;62818;49.394;8.686;2023-02-15T04:51:37;42.00;;;29.93;;
60098;SDS011;62818;49.394;8.686;2023-02-15T04:52:38;41.27;;;29.60;;
60098;SDS011;62818;49.394;8.686;2023-02-15T04:53:38;43.43;;;30.57;;
60098;SDS011;62818;49.394;8.686;2023-02-15T04:54:39;39.13;;;29.10;;
60098;SDS011;62818;49.394;8.686;2023-02-15T04:55:40;38.60;;;29.13;;
60098;SDS011;62818;49.394;8.686;2023-02-15T04:56:41;41.60;;;29.43;;
60098;SDS011;62818;49.394;8.686;2023-02-15T04:57:42;40.20;;;28.90;;
60098;SDS011;62818;49.394;8.686;2023-02-15T04:58:43;40.73;;;29.33;;
60098;SDS011;62818;49.394;8.686;2023-02-15T04:59:43;44.93;;;30.73;;
60098;SDS011;62818;49.394;8.686;2023-02-15T05:00:44;40.03;;;29.67;;
60098;SDS011;62818;49.394;8.686;2023-02-15T05:01:44;44.57;;;30.17;;
60098;SDS011;62818;49.394;8.686;2023-02-15T05:02:45;47.43;;;31.17;;
60098;SDS011;62818;49.394;8.686;2023-02-15T05:03:45;39.57;;;29.20;;
60098;SDS011;62818;49.394;8.686;2023-02-15T05:04:46;43.40;;;29.73;;
60098;SDS011;62818;49.394;8.686;2023-02-15T05:05:46;39.67;;;29.40;;
60098;SDS011;62818;49.394;8.686;2023-02-15T05:06:47;38.70;;;29.33;;
60098;SDS011;62818;49.394;8.686;2023-02-15T05:07:47;39.87;;;29.07;;
60098;SDS011;62818;49.394;8.686;2023-02-15T05:08:48;41.97;;;30.03;;
60098;SDS011;62818;49.394;8.686;2023-02-15T05:09:48;42.83;;;30.77;;
60098;SDS011;62818;49.394;8.686;2023-02-15T05:10:49;40.97;;;29.73;;
60098;SDS011;62818;49.394;8.686;2023-02-15T05:11:49;45.67;;;30.43;;
60098;SDS011;62818;49.394;8.686;2023-02-15T05:12:50;39.03;;;29.30;;
60098;SDS011;62818;49.394;8.686;2023-02-15T05:13:50;42.07;;;29.33;;
60098;SDS011;62818;49.394;8.686;2023-02-15T05:14:51;44.90;;;30.83;;
60098;SDS011;62818;49.394;8.686;2023-02-15T05:15:52;41.70;;;29.07;;
60098;SDS011;62818;49.394;8.686;2023-02-15T05:16:53;39.38;;;29.45;;
60098;SDS011;62818;49.394;8.686;2023-02-15T05:17:53;40.17;;;29.97;;
60098;SDS011;62818;49.394;8.686;2023-02-15T05:18:54;40.93;;;29.70;;
60098;SDS011;62818;49.394;8.686;2023-02-15T05:19:54;46.53;;;31.23;;
60098;SDS011;62818;49.394;8.686;2023-02-15T05:20:55;42.53;;;29.60;;
60098;SDS011;62818;49.394;8.686;2023-02-15T05:21:55;37.13;;;27.77;;
60098;SDS011;62818;49.394;8.686;2023-02-15T05:22:56;37.50;;;28.10;;
60098;SDS011;62818;49.394;8.686;2023-02-15T05:23:56;41.17;;;28.43;;
60098;SDS011;62818;49.394;8.686;2023-02-15T05:24:57;39.90;;;28.43;;
60098;SDS011;62818;49.394;8.686;2023-02-15T05:26:17;36.90;;;27.08;;
60098;SDS011;62818;49.394;8.686;2023-02-15T05:27:42;36.20;;;27.63;;
60098;SDS011;62818;49.394;8.686;2023-02-15T05:29:01;40.05;;;28.02;;
60098;SDS011;62818;49.394;8.686;2023-02-15T05:30:02;36.80;;;27.70;;
60098;SDS011;62818;49.394;8.686;2023-02-15T05:31:06;36.53;;;28.30;;
60098;SDS011;62818;49.394;8.686;2023-02-15T05:32:18;38.83;;;27.80;;
60098;SDS011;62818;49.394;8.686;2023-02-15T05:33:19;44.00;;;28.97;;
60098;SDS011;62818;49.394;8.686;2023-02-15T05:34:20;38.87;;;28.27;;
60098;SDS011;62818;49.394;8.686;2023-02-15T05:35:20;36.93;;;27.83;;
60098;SDS011;62818;49.394;8.686;2023-02-15T05:36:21;38.70;;;27.87;;
60098;SDS011;62818;49.394;8.686;2023-02-15T05:37:21;39.77;;;28.20;;
60098;SDS011;62818;49.394;8.686;2023-02-15T05:38:22;36.13;;;27.40;;
60098;SDS011;62818;49.394;8.686;2023-02-15T05:39:22;38.50;;;28.17;;
60098;SDS011;62818;49.394;8.686;2023-02-15T05:40:22;41.10;;;28.97;;
60098;SDS011;62818;49.394;8.686;2023-02-15T05:41:23;39.17;;;28.63;;
60098;SDS011;62818;49.394;8.686;2023-02-15T05:42:25;38.13;;;28.20;;
60098;SDS011;62818;49.394;8.686;2023-02-15T05:43:26;38.90;;;28.60;;
60098;SDS011;62818;49.394;8.686;2023-02-15T05:44:26;39.13;;;28.45;;
60098;SDS011;62818;49.394;8.686;2023-02-15T05:45:27;39.20;;;27.67;;
60098;SDS011;62818;49.394;8.686;2023-02-15T05:46:27;35.97;;;27.83;;
60098;SDS011;62818;49.394;8.686;2023-02-15T05:47:28;35.47;;;25.90;;
60098;SDS011;62818;49.394;8.686;2023-02-15T05:48:28;37.00;;;28.50;;
60098;SDS011;62818;49.394;8.686;2023-02-15T05:49:29;38.05;;;28.42;;
60098;SDS011;62818;49.394;8.686;2023-02-15T05:50:30;39.78;;;28.88;;
60098;SDS011;62818;49.394;8.686;2023-02-15T05:51:31;39.90;;;28.03;;
60098;SDS011;62818;49.394;8.686;2023-02-15T05:52:31;37.60;;;27.43;;
60098;SDS011;62818;49.394;8.686;2023-02-15T05:53:32;38.77;;;27.60;;
60098;SDS011;62818;49.394;8.686;2023-02-15T05:54:35;39.35;;;27.85;;
60098;SDS011;62818;49.394;8.686;2023-02-15T05:55:39;38.03;;;27.93;;
60098;SDS011;62818;49.394;8.686;2023-02-15T05:56:41;35.63;;;26.23;;
60098;SDS011;62818;49.394;8.686;2023-02-15T05:57:41;36.53;;;26.90;;
60098;SDS011;62818;49.394;8.686;2023-02-15T05:58:42;38.27;;;27.03;;
60098;SDS011;62818;49.394;8.686;2023-02-15T05:59:42;38.57;;;28.00;;
60098;SDS011;62818;49.394;8.686;2023-02-15T06:00:42;37.43;;;27.27;;
60098;SDS011;62818;49.394;8.686;2023-02-15T06:01:43;34.97;;;27.30;;
60098;SDS011;62818;49.394;8.686;2023-02-15T06:02:43;37.50;;;27.43;;
60098;SDS011;62818;49.394;8.686;2023-02-15T06:03:44;35.93;;;26.63;;
60098;SDS011;62818;49.394;8.686;2023-02-15T06:05:46;36.63;;;27.20;;
60098;SDS011;62818;49.394;8.686;2023-02-15T06:06:46;35.93;;;26.43;;
60098;SDS011;62818;49.394;8.686;2023-02-15T06:07:47;36.67;;;26.47;;
60098;SDS011;62818;49.394;8.686;2023-02-15T06:08:47;38.53;;;26.97;;
60098;SDS011;62818;49.394;8.686;2023-02-15T06:09:48;35.17;;;27.83;;
60098;SDS011;62818;49.394;8.686;2023-02-15T06:10:49;37.53;;;27.50;;
60098;SDS011;62818;49.394;8.686;2023-02-15T06:11:49;39.60;;;27.97;;
60098;SDS011;62818;49.394;8.686;2023-02-15T06:12:50;37.57;;;28.20;;
60098;SDS011;62818;49.394;8.686;2023-02-15T06:13:50;36.20;;;28.70;;
60098;SDS011;62818;49.394;8.686;2023-02-15T06:14:51;40.07;;;28.97;;
60098;SDS011;62818;49.394;8.686;2023-02-15T06:15:51;42.60;;;28.93;;
60098;SDS011;62818;49.394;8.686;2023-02-15T06:16:52;39.63;;;28.77;;
60098;SDS011;62818;49.394;8.686;2023-02-15T06:17:52;37.17;;;28.03;;
60098;SDS011;62818;49.394;8.686;2023-02-15T06:18:53;37.50;;;28.77;;
60098;SDS011;62818;49.394;8.686;2023-02-15T06:19:53;42.23;;;29.27;;
60098;SDS011;62818;49.394;8.686;2023-02-15T06:20:54;36.40;;;27.83;;
60098;SDS011;62818;49.394;8.686;2023-02-15T06:21:54;49.97;;;29.03;;
60098;SDS011;62818;49.394;8.686;2023-02-15T06:22:54;43.30;;;30.37;;
60098;SDS011;62818;49.394;8.686;2023-02-15T06:23:55;43.27;;;30.33;;
60098;SDS011;62818;49.394;8.686;2023-02-15T06:24:55;45.23;;;30.87;;
60098;SDS011;62818;49.394;8.686;2023-02-15T06:25:56;44.80;;;29.30;;
60098;SDS011;62818;49.394;8.686;2023-02-15T06:26:57;46.05;;;30.50;;
60098;SDS011;62818;49.394;8.686;2023-02-15T06:27:57;38.37;;;27.97;;
60098;SDS011;62818;49.394;8.686;2023-02-15T06:28:58;40.20;;;29.50;;
60098;SDS011;62818;49.394;8.686;2023-02-15T06:29:58;40.53;;;28.37;;
60098;SDS011;62818;49.394;8.686;2023-02-15T06:30:59;40.60;;;27.67;;
60098;SDS011;62818;49.394;8.686;2023-02-15T06:31:59;42.93;;;28.23;;
60098;SDS011;62818;49.394;8.686;2023-02-15T06:33:03;44.65;;;30.20;;
60098;SDS011;62818;49.394;8.686;2023-02-15T06:34:03;44.27;;;29.73;;
60098;SDS011;62818;49.394;8.686;2023-02-15T06:35:04;42.47;;;29.93;;
60098;SDS011;62818;49.394;8.686;2023-02-15T06:36:05;43.50;;;30.65;;
60098;SDS011;62818;49.394;8.686;2023-02-15T06:37:05;47.47;;;29.65;;
60098;SDS011;62818;49.394;8.686;2023-02-15T06:38:08;43.63;;;30.67;;
60098;SDS011;62818;49.394;8.686;2023-02-15T06:39:08;45.73;;;30.93;;
60098;SDS011;62818;49.394;8.686;2023-02-15T06:40:09;50.60;;;31.33;;
60098;SDS011;62818;49.394;8.686;2023-02-15T06:41:09;48.07;;;32.20;;
60098;SDS011;62818;49.394;8.686;2023-02-15T06:42:10;42.33;;;31.60;;
60098;SDS011;62818;49.394;8.686;2023-02-15T06:43:10;44.40;;;30.20;;
60098;SDS011;62818;49.394;8.686;2023-02-15T06:44:11;43.77;;;30.53;;
60098;SDS011;62818;49.394;8.686;2023-02-15T06:45:11;43.10;;;30.00;;
60098;SDS011;62818;49.394;8.686;2023-02-15T06:46:12;47.75;;;32.42;;
60098;SDS011;62818;49.394;8.686;2023-02-15T06:47:13;43.40;;;31.70;;